Time;durP1;ratioP1;P1;durP2;ratioP2;P2;SDS_P1;SDS_P2;PMS_P1;PMS_P2;Temp;Humidity;BMP_temperature;BMP_pressure;BME280_temperature;BME280_humidity;BME280_pressure;Samples;Min_cycle;Max_cycle;Signal;HPM_P1;HPM_P2
2022/03/26 00:00:16;;;;;;;81.38;46.47;;;6.40;91.50;;;;;;5011689;28;20034;-70
2022/03/26 00:02:48;;;;;;;76.00;43.35;;;6.40;91.30;;;;;;5013679;28;20041;-68
2022/03/26 00:05:18;;;;;;;92.25;50.78;;;6.40;91.50;;;;;;5029114;28;20432;-70
2022/03/26 00:07:48;;;;;;;93.82;51.67;;;6.30;92.40;;;;;;5013575;28;20033;-71
2022/03/26 00:10:16;;;;;;;80.72;50.60;;;6.20;92.50;;;;;;5028836;28;20030;-70
2022/03/26 00:16:12;;;;;;;78.18;48.15;;;6.10;93.00;;;;;;5029024;28;20063;-71
2022/03/26 00:18:38;;;;;;;102.45;57.30;;;6.10;93.40;;;;;;5031270;28;20041;-71
2022/03/26 00:21:04;;;;;;;113.20;66.70;;;6.00;93.90;;;;;;5019441;28;20045;-71
2022/03/26 00:23:31;;;;;;;93.47;55.85;;;6.10;94.30;;;;;;5011295;28;20109;-71
2022/03/26 00:26:00;;;;;;;84.88;52.70;;;6.10;93.90;;;;;;5009961;28;20026;-72
2022/03/26 00:28:26;;;;;;;76.97;47.85;;;6.00;93.70;;;;;;5011437;28;20069;-71
2022/03/26 00:30:53;;;;;;;69.60;41.00;;;6.10;93.50;;;;;;5011343;28;20049;-71
2022/03/26 00:33:19;;;;;;;52.13;30.65;;;6.00;93.50;;;;;;5011448;28;20412;-71
2022/03/26 00:35:50;;;;;;;47.47;26.50;;;6.10;93.80;;;;;;5011196;28;20030;-72
2022/03/26 00:38:16;;;;;;;60.42;32.40;;;6.10;93.30;;;;;;5010993;28;20040;-71
2022/03/26 00:40:41;;;;;;;70.28;33.95;;;6.10;93.20;;;;;;5010832;28;20121;-70
2022/03/26 00:43:08;;;;;;;62.45;34.38;;;6.10;93.20;;;;;;5008030;28;20053;-71
2022/03/26 00:45:35;;;;;;;68.38;35.55;;;6.00;93.40;;;;;;5010781;28;20057;-71
2022/03/26 00:48:01;;;;;;;63.25;35.80;;;6.00;93.70;;;;;;4994781;28;20140;-71
2022/03/26 00:50:28;;;;;;;72.32;40.15;;;5.90;94.70;;;;;;5010459;28;20022;-71
2022/03/26 00:52:59;;;;;;;76.72;42.28;;;5.90;94.90;;;;;;5000550;28;20042;-70
2022/03/26 00:55:28;;;;;;;77.38;38.65;;;5.90;94.90;;;;;;5008573;28;20032;-71
2022/03/26 00:57:54;;;;;;;60.97;35.63;;;5.90;95.10;;;;;;4993342;28;20133;-70
2022/03/26 01:00:20;;;;;;;61.85;35.28;;;5.90;95.20;;;;;;5008460;28;20414;-69
2022/03/26 01:02:46;;;;;;;83.10;49.53;;;5.90;94.80;;;;;;4992458;28;20029;-70
2022/03/26 01:05:15;;;;;;;85.63;47.10;;;5.90;94.40;;;;;;4993779;28;20065;-70
2022/03/26 01:07:40;;;;;;;89.60;50.50;;;5.80;94.90;;;;;;4976502;28;20042;-69
2022/03/26 01:10:07;;;;;;;96.40;49.85;;;5.70;94.90;;;;;;4993607;28;20457;-70
2022/03/26 01:12:33;;;;;;;84.90;47.85;;;5.70;95.70;;;;;;4975500;28;20042;-70
2022/03/26 01:14:59;;;;;;;77.70;45.17;;;5.70;96.00;;;;;;4993268;28;20072;-70
2022/03/26 01:17:24;;;;;;;78.35;44.13;;;5.70;95.90;;;;;;4992745;28;20030;-70
2022/03/26 01:19:51;;;;;;;71.97;40.80;;;5.70;96.20;;;;;;4993280;28;20030;-69
2022/03/26 01:22:17;;;;;;;64.32;35.95;;;5.60;96.50;;;;;;4993105;28;20036;-69
2022/03/26 01:24:43;;;;;;;73.65;41.47;;;5.70;96.90;;;;;;4993121;28;20030;-70
2022/03/26 01:27:17;;;;;;;82.13;44.67;;;5.70;96.80;;;;;;4992797;28;20038;-70
2022/03/26 01:29:46;;;;;;;67.93;40.70;;;5.80;96.50;;;;;;4975503;28;20034;-70
2022/03/26 01:32:14;;;;;;;59.85;37.17;;;5.80;96.50;;;;;;4991833;28;20021;-70
2022/03/26 01:34:43;;;;;;;86.00;47.10;;;5.60;96.30;;;;;;4992634;28;20107;-70
2022/03/26 01:37:12;;;;;;;63.35;39.97;;;5.40;97.80;;;;;;4992991;28;20038;-70
2022/03/26 01:39:38;;;;;;;81.88;46.33;;;5.40;99.90;;;;;;4991717;28;20026;-69
2022/03/26 01:42:06;;;;;;;82.10;47.95;;;5.30;99.90;;;;;;4992974;28;20085;-68
2022/03/26 01:44:32;;;;;;;67.57;41.00;;;5.00;99.90;;;;;;4991940;28;20054;-70
2022/03/26 01:47:00;;;;;;;66.78;40.35;;;4.90;99.90;;;;;;4992177;28;20133;-71
2022/03/26 01:49:25;;;;;;;62.33;37.70;;;4.80;99.90;;;;;;4996406;28;20547;-70
2022/03/26 01:51:51;;;;;;;56.75;33.00;;;4.70;99.90;;;;;;4995330;28;20030;-70
2022/03/26 01:54:19;;;;;;;60.03;36.42;;;4.70;99.90;;;;;;4990903;28;20034;-70
2022/03/26 01:56:45;;;;;;;73.68;42.28;;;4.70;99.90;;;;;;4993256;28;20292;-70
2022/03/26 01:59:14;;;;;;;74.30;42.17;;;4.80;99.90;;;;;;5000704;28;20084;-70
2022/03/26 02:01:43;;;;;;;73.93;39.60;;;4.90;99.90;;;;;;4997534;28;20137;-71
2022/03/26 02:04:12;;;;;;;62.72;36.63;;;5.00;99.90;;;;;;4994809;28;20038;-70
2022/03/26 02:06:40;;;;;;;77.55;45.70;;;4.90;99.90;;;;;;4996729;28;20031;-70
2022/03/26 02:09:08;;;;;;;67.45;37.72;;;4.90;99.90;;;;;;4991411;28;20042;-71
2022/03/26 02:11:37;;;;;;;49.47;28.67;;;4.90;99.90;;;;;;4990912;28;20106;-70
2022/03/26 02:14:16;;;;;;;51.53;31.13;;;4.80;99.90;;;;;;5005966;28;20037;-71
2022/03/26 02:16:46;;;;;;;50.13;27.83;;;4.90;99.90;;;;;;4992081;28;20034;-70
2022/03/26 02:19:11;;;;;;;60.25;30.65;;;4.90;99.90;;;;;;4991340;28;20476;-70
2022/03/26 02:21:38;;;;;;;61.58;34.42;;;4.90;99.90;;;;;;4990842;28;20022;-70
2022/03/26 02:24:06;;;;;;;57.67;30.60;;;4.90;99.90;;;;;;4990807;28;20518;-71
2022/03/26 02:26:35;;;;;;;64.07;38.17;;;4.90;99.90;;;;;;4990578;28;20019;-71
2022/03/26 02:29:12;;;;;;;54.15;34.03;;;4.90;99.90;;;;;;4988417;28;20038;-70
2022/03/26 02:31:39;;;;;;;62.13;35.92;;;5.00;99.90;;;;;;4990611;28;20431;-70
2022/03/26 02:34:07;;;;;;;60.55;34.70;;;5.00;99.90;;;;;;4990698;28;20066;-70
2022/03/26 02:36:33;;;;;;;56.55;33.30;;;5.10;99.90;;;;;;4990637;28;20027;-71
2022/03/26 02:38:59;;;;;;;51.72;32.70;;;5.10;99.90;;;;;;4990861;28;20022;-71
2022/03/26 02:41:25;;;;;;;55.33;32.47;;;5.10;99.90;;;;;;4990475;28;20046;-69
2022/03/26 02:44:02;;;;;;;65.60;35.08;;;5.20;99.90;;;;;;4990117;28;20108;-70
2022/03/26 02:46:31;;;;;;;54.08;33.05;;;5.20;99.90;;;;;;5022032;28;20026;-71
2022/03/26 02:48:57;;;;;;;56.08;33.60;;;5.20;99.90;;;;;;5011386;28;20026;-71
2022/03/26 02:51:23;;;;;;;51.25;32.00;;;5.30;99.90;;;;;;5011794;28;20019;-71
2022/03/26 02:53:49;;;;;;;60.22;31.65;;;5.30;99.90;;;;;;5011027;28;20384;-71
2022/03/26 02:56:15;;;;;;;58.00;34.33;;;5.30;99.90;;;;;;5011367;28;20026;-71
2022/03/26 02:58:41;;;;;;;58.85;32.83;;;5.30;99.90;;;;;;5011044;28;20464;-71
2022/03/26 03:01:07;;;;;;;58.33;33.47;;;5.30;99.90;;;;;;5011923;28;20080;-70
2022/03/26 03:03:33;;;;;;;50.15;32.15;;;5.20;99.90;;;;;;5011957;28;20026;-71
2022/03/26 03:06:01;;;;;;;65.32;37.28;;;5.20;99.90;;;;;;5011412;28;20041;-71
2022/03/26 03:08:27;;;;;;;61.33;37.13;;;5.20;99.90;;;;;;5011346;28;20038;-71
2022/03/26 03:11:03;;;;;;;54.05;36.30;;;5.10;99.90;;;;;;5011146;28;20132;-71
2022/03/26 03:13:31;;;;;;;55.20;34.15;;;5.00;99.90;;;;;;5029791;28;20472;-71
2022/03/26 03:16:02;;;;;;;61.10;34.55;;;5.00;99.90;;;;;;4997805;28;20037;-71
2022/03/26 03:18:28;;;;;;;56.38;34.47;;;5.00;99.90;;;;;;5015152;28;20081;-71
2022/03/26 03:21:00;;;;;;;57.38;34.55;;;4.90;99.90;;;;;;5014981;28;20045;-72
2022/03/26 03:23:31;;;;;;;62.00;36.80;;;4.90;99.90;;;;;;5013714;28;20030;-69
2022/03/26 03:26:04;;;;;;;65.18;36.67;;;4.90;99.90;;;;;;5013493;28;20644;-70
2022/03/26 03:28:33;;;;;;;58.47;36.45;;;4.80;99.90;;;;;;4997290;28;20559;-70
2022/03/26 03:30:59;;;;;;;67.47;36.90;;;4.80;99.90;;;;;;4997294;28;20029;-70
2022/03/26 03:33:26;;;;;;;55.92;36.72;;;4.70;99.90;;;;;;5014936;28;20384;-70
2022/03/26 03:35:57;;;;;;;63.28;38.05;;;4.70;99.90;;;;;;5014056;28;20026;-70
2022/03/26 03:38:31;;;;;;;66.57;37.80;;;4.70;99.90;;;;;;5012569;28;20072;-71
2022/03/26 03:41:09;;;;;;;53.92;34.53;;;4.60;99.90;;;;;;4977389;28;20496;-71
2022/03/26 03:43:35;;;;;;;77.80;38.80;;;4.50;99.90;;;;;;4992119;28;20042;-71
2022/03/26 03:46:01;;;;;;;70.07;41.30;;;4.50;99.90;;;;;;4992298;28;20469;-71
2022/03/26 03:48:38;;;;;;;87.00;51.83;;;4.40;99.90;;;;;;4992093;28;20089;-72
2022/03/26 03:51:48;;;;;;;80.32;48.03;;;4.40;99.90;;;;;;4976037;28;20143;-71
2022/03/26 03:54:32;;;;;;;73.25;44.50;;;4.30;99.90;;;;;;4990276;28;20030;-71
2022/03/26 03:56:58;;;;;;;71.13;43.88;;;4.30;99.90;;;;;;4991898;28;20042;-71
2022/03/26 03:59:24;;;;;;;72.63;40.67;;;4.30;99.90;;;;;;4992063;28;20093;-71
2022/03/26 04:01:50;;;;;;;70.68;38.15;;;4.20;99.90;;;;;;4991054;28;20096;-71
2022/03/26 04:04:16;;;;;;;72.93;34.53;;;4.20;99.90;;;;;;4992173;28;20046;-72
2022/03/26 04:06:43;;;;;;;62.97;33.15;;;4.20;99.90;;;;;;5028384;28;20072;-70
2022/03/26 04:09:20;;;;;;;58.70;34.45;;;4.20;99.90;;;;;;5031394;28;20029;-71
2022/03/26 04:11:59;;;;;;;48.63;30.30;;;4.20;99.90;;;;;;5030951;28;20029;-70
2022/03/26 04:14:29;;;;;;;47.42;28.33;;;4.20;99.90;;;;;;4997618;28;20395;-71
2022/03/26 04:16:55;;;;;;;49.80;27.60;;;4.20;99.90;;;;;;5015879;28;20053;-69
2022/03/26 04:19:20;;;;;;;51.67;31.08;;;4.20;99.90;;;;;;5011399;28;20496;-72
2022/03/26 04:21:57;;;;;;;50.50;28.63;;;4.20;99.90;;;;;;5011680;28;20105;-71
2022/03/26 04:24:25;;;;;;;53.38;28.25;;;4.20;99.90;;;;;;5026608;28;20104;-70
2022/03/26 04:26:52;;;;;;;48.90;28.23;;;4.20;99.90;;;;;;5013521;28;20034;-71
2022/03/26 04:29:21;;;;;;;49.45;25.63;;;4.10;99.90;;;;;;5013424;28;20034;-73
2022/03/26 04:31:47;;;;;;;45.15;24.10;;;4.10;99.90;;;;;;5013589;28;20014;-72
2022/03/26 04:34:15;;;;;;;41.33;21.55;;;4.10;99.90;;;;;;5012879;28;20530;-71
2022/03/26 04:36:46;;;;;;;39.33;22.00;;;4.00;99.90;;;;;;5013063;28;20045;-69
2022/03/26 04:39:20;;;;;;;37.80;21.50;;;4.00;99.90;;;;;;4995717;28;20033;-72
2022/03/26 04:41:47;;;;;;;42.72;22.20;;;4.00;99.90;;;;;;5013368;28;20030;-72
2022/03/26 04:44:14;;;;;;;45.22;23.77;;;4.10;99.90;;;;;;5012798;28;20129;-72
2022/03/26 04:46:57;;;;;;;47.75;24.85;;;4.10;99.90;;;;;;5011678;28;20038;-72
2022/03/26 04:49:24;;;;;;;49.70;25.75;;;4.20;99.90;;;;;;5013102;28;20053;-70
2022/03/26 04:51:50;;;;;;;43.92;27.02;;;4.30;99.90;;;;;;5012509;28;20436;-72
2022/03/26 04:54:18;;;;;;;53.13;29.63;;;4.60;99.90;;;;;;5013045;28;20025;-73
2022/03/26 04:56:47;;;;;;;54.85;30.98;;;5.00;99.90;;;;;;5013167;28;20113;-70
2022/03/26 04:59:19;;;;;;;61.25;34.40;;;5.40;99.90;;;;;;5009963;28;20099;-70
2022/03/26 05:01:45;;;;;;;58.20;33.10;;;5.90;99.90;;;;;;5010300;28;20511;-73
2022/03/26 05:04:14;;;;;;;65.45;32.20;;;6.20;98.70;;;;;;5010509;28;20041;-73
2022/03/26 05:06:40;;;;;;;59.45;32.42;;;6.40;97.30;;;;;;5010352;28;20105;-70
2022/03/26 05:09:34;;;;;;;64.13;36.53;;;6.90;95.70;;;;;;5009415;28;20145;-71
2022/03/26 05:12:01;;;;;;;56.35;32.20;;;7.00;93.30;;;;;;5009511;28;20034;-73
2022/03/26 05:14:26;;;;;;;54.60;30.05;;;7.30;92.40;;;;;;5010669;28;20026;-69
2022/03/26 05:16:54;;;;;;;45.05;27.58;;;7.50;91.10;;;;;;5007652;28;20038;-70
2022/03/26 05:19:22;;;;;;;41.05;25.23;;;7.80;90.90;;;;;;4976323;28;20176;-70
2022/03/26 05:21:48;;;;;;;41.83;24.17;;;8.40;90.50;;;;;;4993690;28;20030;-71
2022/03/26 05:24:14;;;;;;;41.40;23.27;;;8.60;87.40;;;;;;5010019;28;20091;-70
2022/03/26 05:26:40;;;;;;;43.97;26.10;;;8.80;86.80;;;;;;4992979;28;20072;-72
2022/03/26 05:29:07;;;;;;;45.53;28.70;;;9.40;85.30;;;;;;4993312;28;20030;-70
2022/03/26 05:31:33;;;;;;;87.47;47.03;;;9.70;83.80;;;;;;4993704;28;20484;-71
2022/03/26 05:33:59;;;;;;;103.00;60.50;;;9.60;83.20;;;;;;5009172;28;20041;-72
2022/03/26 05:36:41;;;;;;;128.77;75.85;;;9.90;81.60;;;;;;5009265;28;20502;-72
2022/03/26 05:39:07;;;;;;;144.57;83.73;;;10.40;80.30;;;;;;4993483;28;20088;-71
2022/03/26 05:41:39;;;;;;;102.63;60.40;;;10.70;79.00;;;;;;5011852;28;20753;-71
2022/03/26 05:44:10;;;;;;;77.20;46.72;;;10.90;77.50;;;;;;4994941;28;20038;-72
2022/03/26 05:46:39;;;;;;;64.22;35.55;;;10.80;76.70;;;;;;5010985;28;20045;-72
2022/03/26 05:49:10;;;;;;;44.78;27.80;;;10.00;77.80;;;;;;5025883;28;20034;-72
2022/03/26 05:51:38;;;;;;;45.65;25.85;;;9.20;79.20;;;;;;5010981;28;20025;-72
2022/03/26 05:54:04;;;;;;;37.97;22.55;;;8.90;82.50;;;;;;5011317;28;20022;-71
2022/03/26 05:56:36;;;;;;;36.13;20.95;;;8.80;83.00;;;;;;5010969;28;20392;-71
2022/03/26 05:59:03;;;;;;;36.33;21.95;;;8.70;83.50;;;;;;5011728;28;20038;-71
2022/03/26 06:01:31;;;;;;;37.53;24.17;;;8.70;85.70;;;;;;5011665;28;20040;-72
2022/03/26 06:03:57;;;;;;;40.38;23.85;;;8.70;86.00;;;;;;5011897;28;20022;-72
2022/03/26 06:06:26;;;;;;;37.58;20.85;;;8.90;84.90;;;;;;5012240;28;20052;-71
2022/03/26 06:08:57;;;;;;;29.15;16.95;;;9.10;84.60;;;;;;5011756;28;20125;-71
2022/03/26 06:11:24;;;;;;;38.10;19.33;;;9.20;85.40;;;;;;5011085;28;20033;-72
2022/03/26 06:13:50;;;;;;;38.08;21.48;;;9.30;84.10;;;;;;5011862;28;20033;-71
2022/03/26 06:16:32;;;;;;;38.28;23.05;;;9.20;85.30;;;;;;5006763;28;20030;-71
2022/03/26 06:19:04;;;;;;;44.05;26.30;;;9.40;84.50;;;;;;4991972;28;20401;-72
2022/03/26 06:21:34;;;;;;;42.35;26.23;;;9.60;84.30;;;;;;4990896;28;20038;-71
2022/03/26 06:24:02;;;;;;;43.90;25.15;;;9.80;83.00;;;;;;4981136;28;20026;-71
2022/03/26 06:26:28;;;;;;;40.85;25.85;;;10.10;81.80;;;;;;4993233;28;20061;-72
2022/03/26 06:28:54;;;;;;;41.25;25.42;;;10.10;81.70;;;;;;5010602;28;20070;-72
2022/03/26 06:31:26;;;;;;;54.53;25.08;;;10.10;82.90;;;;;;5011465;28;20057;-72
2022/03/26 06:33:52;;;;;;;47.10;25.40;;;10.30;81.60;;;;;;5026130;28;20080;-71
2022/03/26 06:36:26;;;;;;;40.60;24.77;;;10.60;80.90;;;;;;5011329;28;20423;-72
2022/03/26 06:38:52;;;;;;;47.10;25.63;;;10.60;80.60;;;;;;4993457;28;20038;-71
2022/03/26 06:41:24;;;;;;;40.92;21.15;;;10.80;80.60;;;;;;4993393;28;20034;-71
2022/03/26 06:43:52;;;;;;;43.67;26.00;;;10.80;79.90;;;;;;4991412;28;20046;-70
2022/03/26 06:46:18;;;;;;;31.20;19.30;;;10.90;79.30;;;;;;5010361;28;20033;-70
2022/03/26 06:48:44;;;;;;;39.65;22.40;;;10.80;79.80;;;;;;5014429;28;20041;-70
2022/03/26 06:51:10;;;;;;;41.50;21.50;;;10.80;81.70;;;;;;5012718;28;20018;-71
2022/03/26 06:53:36;;;;;;;34.75;18.65;;;10.70;79.30;;;;;;4995213;28;20038;-73
2022/03/26 06:56:05;;;;;;;32.63;19.98;;;10.80;78.80;;;;;;5010210;28;20046;-73
2022/03/26 06:58:31;;;;;;;36.25;20.48;;;11.00;79.60;;;;;;5013586;28;20061;-67
2022/03/26 07:00:58;;;;;;;33.53;18.55;;;11.20;78.80;;;;;;5013889;28;20440;-72
2022/03/26 07:03:26;;;;;;;41.35;20.05;;;11.40;77.60;;;;;;5014297;28;20100;-72
2022/03/26 07:05:54;;;;;;;29.65;18.48;;;11.60;78.50;;;;;;5012923;28;21050;-70
2022/03/26 07:08:20;;;;;;;35.72;20.63;;;11.80;77.70;;;;;;5011799;28;20112;-71
2022/03/26 07:10:46;;;;;;;39.45;20.45;;;12.00;77.60;;;;;;5014290;28;20445;-70
2022/03/26 07:13:13;;;;;;;33.42;21.08;;;12.20;75.60;;;;;;5014264;28;20030;-70
2022/03/26 07:15:39;;;;;;;34.67;18.08;;;12.30;76.20;;;;;;5013817;28;20025;-73
2022/03/26 07:18:11;;;;;;;29.25;17.65;;;12.40;75.60;;;;;;5015587;28;20033;-71
2022/03/26 07:20:38;;;;;;;32.42;19.17;;;12.50;74.30;;;;;;5017206;28;20036;-72
2022/03/26 07:23:04;;;;;;;28.25;18.13;;;12.60;74.60;;;;;;5014517;28;20061;-70
2022/03/26 07:25:30;;;;;;;26.42;18.13;;;12.80;74.60;;;;;;5013846;28;20057;-75
2022/03/26 07:27:57;;;;;;;27.27;16.70;;;13.00;76.80;;;;;;5014785;28;20092;-73
2022/03/26 07:30:23;;;;;;;22.30;14.10;;;13.10;74.00;;;;;;5014173;28;20073;-73
2022/03/26 07:32:49;;;;;;;22.67;12.25;;;13.50;74.50;;;;;;5014474;28;20472;-73
2022/03/26 07:35:14;;;;;;;22.38;12.07;;;13.70;70.80;;;;;;5014125;28;20040;-73
2022/03/26 07:37:41;;;;;;;18.50;11.52;;;13.90;71.10;;;;;;5014209;28;20025;-73
2022/03/26 07:40:07;;;;;;;18.52;9.27;;;14.20;70.30;;;;;;5014172;28;20022;-76
2022/03/26 07:42:33;;;;;;;18.50;10.43;;;14.30;70.40;;;;;;5014066;28;20025;-76
2022/03/26 07:45:02;;;;;;;16.00;9.25;;;14.40;68.60;;;;;;5012580;28;20049;-76
2022/03/26 07:47:28;;;;;;;21.50;10.30;;;14.60;68.30;;;;;;5029631;28;20403;-75
2022/03/26 07:49:54;;;;;;;17.45;10.25;;;14.70;67.20;;;;;;5014204;28;20026;-72
2022/03/26 07:52:20;;;;;;;20.70;11.13;;;14.90;69.10;;;;;;5013635;28;20026;-68
2022/03/26 07:54:46;;;;;;;19.63;10.13;;;15.10;67.80;;;;;;5013725;28;20105;-72
2022/03/26 07:57:11;;;;;;;20.67;10.68;;;15.10;67.00;;;;;;5013762;28;20062;-70
2022/03/26 07:59:37;;;;;;;16.13;9.13;;;15.40;67.60;;;;;;5012341;28;20022;-71
2022/03/26 08:02:04;;;;;;;19.67;10.57;;;15.50;69.20;;;;;;5014031;28;20026;-71
2022/03/26 08:04:35;;;;;;;20.58;9.88;;;15.70;66.30;;;;;;5014125;28;20036;-69
2022/03/26 08:07:01;;;;;;;20.45;10.70;;;15.70;66.50;;;;;;5013087;28;20404;-70
2022/03/26 08:09:29;;;;;;;22.83;11.20;;;15.80;66.30;;;;;;5012756;28;20032;-69
2022/03/26 08:11:55;;;;;;;17.83;9.75;;;15.60;64.60;;;;;;5012462;28;20030;-73
2022/03/26 08:14:24;;;;;;;21.52;10.10;;;15.70;64.50;;;;;;5012122;28;20026;-72
2022/03/26 08:16:50;;;;;;;17.73;9.82;;;15.60;64.80;;;;;;5013472;28;20069;-70
2022/03/26 08:19:17;;;;;;;21.05;10.60;;;15.80;64.00;;;;;;5011902;28;20037;-69
2022/03/26 08:21:43;;;;;;;17.23;9.60;;;15.90;63.50;;;;;;5012582;28;20113;-70
2022/03/26 08:24:09;;;;;;;22.40;10.63;;;15.90;63.30;;;;;;5012741;28;20458;-67
2022/03/26 08:26:34;;;;;;;23.50;10.27;;;16.10;64.20;;;;;;5012150;28;20065;-72
2022/03/26 08:29:01;;;;;;;23.20;9.52;;;16.10;63.30;;;;;;5011582;28;20064;-70
2022/03/26 08:31:29;;;;;;;17.15;8.40;;;16.20;62.90;;;;;;5010236;28;20032;-70
2022/03/26 08:33:55;;;;;;;20.60;8.77;;;16.40;63.50;;;;;;5012873;28;20034;-70
2022/03/26 08:36:21;;;;;;;17.67;8.18;;;16.60;62.80;;;;;;5013453;28;20068;-71
2022/03/26 08:38:50;;;;;;;14.10;7.82;;;16.80;62.10;;;;;;5012449;28;20036;-71
2022/03/26 08:41:22;;;;;;;18.17;8.48;;;16.90;61.40;;;;;;5027603;28;20098;-71
2022/03/26 08:43:50;;;;;;;16.02;8.00;;;17.00;59.70;;;;;;5011175;28;20504;-69
2022/03/26 08:46:17;;;;;;;21.35;7.68;;;17.20;60.90;;;;;;5012433;28;20088;-72
2022/03/26 08:48:47;;;;;;;18.75;7.70;;;17.30;59.80;;;;;;5011614;28;20480;-72
2022/03/26 08:51:13;;;;;;;14.38;6.72;;;17.60;60.30;;;;;;5012113;28;20034;-72
2022/03/26 08:53:39;;;;;;;19.42;9.57;;;17.90;57.10;;;;;;5012296;28;20045;-72
2022/03/26 08:56:06;;;;;;;17.73;10.00;;;17.80;58.20;;;;;;5011862;28;20376;-72
2022/03/26 08:58:33;;;;;;;18.50;9.38;;;17.90;59.80;;;;;;5011196;28;20144;-70
2022/03/26 09:00:59;;;;;;;23.63;8.73;;;18.00;58.90;;;;;;5011338;28;20038;-72
2022/03/26 09:03:27;;;;;;;19.58;7.95;;;17.90;56.70;;;;;;5012388;28;20115;-71
2022/03/26 09:05:53;;;;;;;14.45;6.72;;;18.00;56.70;;;;;;5026941;28;20108;-71
2022/03/26 09:08:19;;;;;;;20.00;7.45;;;17.90;56.80;;;;;;5011845;28;20030;-68
2022/03/26 09:10:45;;;;;;;16.17;7.50;;;17.90;56.10;;;;;;5011346;28;20049;-72
2022/03/26 09:13:11;;;;;;;15.95;7.20;;;17.80;55.60;;;;;;5026686;28;20034;-69
2022/03/26 09:15:38;;;;;;;13.23;6.25;;;17.70;55.90;;;;;;5025496;28;20112;-67
2022/03/26 09:18:04;;;;;;;21.60;7.13;;;17.80;54.10;;;;;;5011007;28;20034;-68
2022/03/26 09:20:30;;;;;;;15.20;7.47;;;18.10;57.70;;;;;;5012188;28;20018;-71
2022/03/26 09:22:58;;;;;;;15.35;7.15;;;18.10;55.80;;;;;;5010734;28;20768;-71
2022/03/26 09:25:25;;;;;;;20.55;7.70;;;18.20;54.40;;;;;;5011672;28;21697;-73
2022/03/26 09:27:51;;;;;;;14.48;7.05;;;18.40;55.80;;;;;;5011792;28;20124;-72
2022/03/26 09:30:18;;;;;;;13.93;7.13;;;18.70;54.50;;;;;;5009314;28;20030;-72
2022/03/26 09:32:44;;;;;;;18.77;8.13;;;18.90;54.20;;;;;;5026642;28;20061;-71
2022/03/26 09:35:12;;;;;;;12.35;6.32;;;18.80;54.50;;;;;;5011218;28;20022;-71
2022/03/26 09:37:40;;;;;;;13.85;6.88;;;18.90;55.20;;;;;;5012155;28;20057;-72
2022/03/26 09:40:12;;;;;;;10.65;5.88;;;18.90;52.20;;;;;;5012078;28;20391;-73
2022/03/26 09:42:41;;;;;;;18.40;7.93;;;18.80;53.60;;;;;;5010043;28;20483;-72
2022/03/26 09:45:17;;;;;;;13.75;6.95;;;18.90;51.00;;;;;;5011193;28;20096;-72
2022/03/26 09:47:46;;;;;;;13.52;7.38;;;18.80;53.70;;;;;;5011502;28;20093;-73
2022/03/26 09:50:13;;;;;;;14.02;5.85;;;18.90;53.40;;;;;;5011858;28;20092;-72
2022/03/26 09:52:39;;;;;;;14.65;6.57;;;18.90;50.90;;;;;;5010200;28;20061;-72
2022/03/26 09:55:06;;;;;;;15.55;7.05;;;19.10;51.40;;;;;;5011063;28;20026;-72
2022/03/26 09:57:34;;;;;;;13.38;7.13;;;19.10;51.20;;;;;;5011162;28;20025;-72
2022/03/26 10:00:00;;;;;;;15.10;8.02;;;19.30;53.90;;;;;;4994237;28;20041;-71
2022/03/26 10:02:26;;;;;;;14.45;7.93;;;19.10;50.90;;;;;;5011285;28;20391;-71
2022/03/26 10:04:52;;;;;;;16.90;8.10;;;19.10;51.40;;;;;;5010330;28;20431;-72
2022/03/26 10:07:29;;;;;;;15.20;7.03;;;19.00;52.30;;;;;;5010770;28;20053;-71
2022/03/26 10:09:55;;;;;;;14.63;6.65;;;19.20;51.20;;;;;;5011866;28;20427;-72
2022/03/26 10:12:24;;;;;;;14.52;7.47;;;19.10;50.60;;;;;;5012063;28;20022;-72
2022/03/26 10:14:59;;;;;;;15.40;8.05;;;18.90;49.50;;;;;;5010339;28;20113;-71
2022/03/26 10:17:26;;;;;;;15.27;8.40;;;19.00;51.50;;;;;;5011668;28;20026;-71
2022/03/26 10:19:53;;;;;;;12.52;7.30;;;19.00;51.60;;;;;;5011598;28;20096;-72
2022/03/26 10:22:34;;;;;;;15.05;7.68;;;18.90;51.80;;;;;;5010730;28;20065;-72
2022/03/26 10:25:12;;;;;;;15.25;7.20;;;18.90;51.90;;;;;;5025048;28;20049;-71
2022/03/26 10:27:42;;;;;;;17.98;6.80;;;18.90;50.60;;;;;;5000572;28;20550;-71
2022/03/26 10:30:13;;;;;;;13.13;6.60;;;18.80;51.00;;;;;;5006999;28;20038;-72
2022/03/26 10:32:49;;;;;;;14.98;7.47;;;18.90;51.70;;;;;;5013842;28;20037;-71
2022/03/26 10:35:19;;;;;;;18.27;7.30;;;19.00;51.50;;;;;;5003554;28;20092;-71
2022/03/26 10:37:51;;;;;;;17.20;7.75;;;19.20;52.10;;;;;;4991433;28;20064;-71
2022/03/26 10:40:20;;;;;;;15.10;6.63;;;19.20;51.70;;;;;;5013152;28;20076;-71
2022/03/26 10:43:01;;;;;;;12.70;6.22;;;19.20;50.80;;;;;;5007732;28;20039;-72
2022/03/26 10:45:29;;;;;;;16.50;5.88;;;19.20;52.70;;;;;;4993256;28;20054;-72
2022/03/26 10:48:07;;;;;;;12.90;5.93;;;19.50;52.90;;;;;;5000450;28;20037;-73
2022/03/26 10:50:39;;;;;;;11.20;5.85;;;19.50;52.30;;;;;;5005489;28;20056;-69
2022/03/26 10:53:10;;;;;;;12.23;5.43;;;19.60;53.60;;;;;;5015117;28;20034;-72
2022/03/26 10:55:49;;;;;;;9.53;5.03;;;19.60;50.60;;;;;;5010489;28;20033;-66
2022/03/26 10:58:26;;;;;;;11.90;5.28;;;19.70;50.50;;;;;;5010512;28;20030;-72
2022/03/26 11:00:52;;;;;;;10.27;5.35;;;19.70;50.20;;;;;;5011363;28;20026;-72
2022/03/26 11:03:18;;;;;;;13.30;6.22;;;19.60;49.40;;;;;;5010770;28;20037;-72
2022/03/26 11:05:45;;;;;;;17.02;6.53;;;19.40;51.60;;;;;;4995343;28;20047;-72
2022/03/26 11:08:13;;;;;;;13.52;6.53;;;19.50;50.90;;;;;;5004548;28;20084;-72
2022/03/26 11:10:40;;;;;;;14.15;7.50;;;19.30;50.00;;;;;;4989313;28;20474;-72
2022/03/26 11:13:11;;;;;;;77.40;53.40;;;19.40;50.10;;;;;;4989411;28;20109;-70
2022/03/26 11:15:45;;;;;;;39.33;27.90;;;19.60;53.00;;;;;;4989115;28;20049;-72
2022/03/26 11:18:47;;;;;;;14.13;7.53;;;19.30;50.10;;;;;;5007675;28;20030;-72
2022/03/26 11:21:51;;;;;;;11.25;5.72;;;19.60;50.50;;;;;;5022211;28;20045;-71
2022/03/26 11:24:41;;;;;;;15.10;6.53;;;19.70;49.00;;;;;;4968193;28;20038;-70
2022/03/26 11:27:31;;;;;;;15.82;6.63;;;19.80;51.10;;;;;;4967475;28;20046;-72
2022/03/26 11:30:21;;;;;;;11.57;6.03;;;19.90;51.50;;;;;;4967845;28;20031;-72
2022/03/26 11:32:51;;;;;;;16.30;7.53;;;19.80;49.90;;;;;;4970101;28;20031;-72
2022/03/26 11:35:18;;;;;;;16.50;8.60;;;19.90;50.60;;;;;;4967535;28;20035;-72
2022/03/26 11:37:56;;;;;;;8.43;4.80;;;20.00;50.10;;;;;;4972420;28;20050;-72
2022/03/26 11:40:53;;;;;;;18.65;6.35;;;20.00;48.40;;;;;;4972293;28;20239;-72
2022/03/26 11:43:44;;;;;;;19.58;6.18;;;20.10;51.30;;;;;;4971549;28;20043;-71
2022/03/26 11:52:18;;;;;;;12.93;5.90;;;20.00;48.00;;;;;;4971819;28;20358;-72
2022/03/26 11:54:45;;;;;;;12.02;5.22;;;19.90;47.50;;;;;;4965572;28;20960;-70
2022/03/26 11:57:24;;;;;;;12.68;6.10;;;19.80;47.60;;;;;;4972040;28;20485;-71
2022/03/26 11:59:52;;;;;;;12.18;5.32;;;19.60;47.90;;;;;;4948737;28;20141;-72
2022/03/26 12:02:46;;;;;;;11.45;5.60;;;19.60;48.60;;;;;;5006007;28;20065;-70
2022/03/26 12:08:18;;;;;;;11.52;4.88;;;19.80;50.20;;;;;;5012568;28;20048;-72
2022/03/26 12:10:45;;;;;;;11.38;5.63;;;19.80;50.70;;;;;;5012686;28;20040;-72
2022/03/26 12:13:21;;;;;;;11.98;4.93;;;19.90;47.60;;;;;;5003081;28;20058;-71
2022/03/26 12:16:07;;;;;;;9.32;4.65;;;19.70;46.70;;;;;;5009119;28;20476;-70
2022/03/26 12:18:38;;;;;;;11.85;4.70;;;19.70;47.80;;;;;;4993921;28;20166;-71
2022/03/26 12:21:10;;;;;;;15.05;5.63;;;19.80;48.60;;;;;;4993193;28;20030;-71
2022/03/26 12:23:36;;;;;;;13.27;4.65;;;19.80;49.20;;;;;;4991988;28;20034;-71
2022/03/26 12:26:05;;;;;;;12.73;4.78;;;19.90;49.80;;;;;;4993687;28;20041;-71
2022/03/26 12:28:39;;;;;;;9.75;4.43;;;19.90;48.20;;;;;;4997207;28;20400;-70
2022/03/26 12:31:10;;;;;;;10.63;4.65;;;19.80;47.60;;;;;;5011797;28;20045;-71
2022/03/26 12:33:47;;;;;;;15.77;5.32;;;19.90;47.40;;;;;;4995617;28;20029;-71
2022/03/26 12:36:18;;;;;;;11.13;4.32;;;19.80;47.20;;;;;;5012281;28;20498;-66
2022/03/26 12:38:49;;;;;;;13.77;4.90;;;20.00;51.40;;;;;;5009230;28;20022;-70
2022/03/26 12:41:16;;;;;;;9.10;4.30;;;19.90;49.20;;;;;;5007755;28;20554;-70
2022/03/26 12:43:55;;;;;;;8.55;4.03;;;20.00;50.00;;;;;;5012454;28;20030;-70
2022/03/26 12:46:21;;;;;;;8.05;4.13;;;20.10;48.80;;;;;;4994384;28;20022;-70
2022/03/26 12:48:48;;;;;;;8.82;3.55;;;20.00;45.90;;;;;;4993053;28;20199;-71
2022/03/26 12:51:14;;;;;;;8.55;3.22;;;19.90;45.90;;;;;;4994623;28;20018;-72
2022/03/26 12:53:40;;;;;;;8.60;3.28;;;19.90;46.40;;;;;;5007746;28;20530;-73
2022/03/26 12:56:11;;;;;;;7.47;3.17;;;19.80;47.30;;;;;;5012737;28;20149;-74
2022/03/26 13:01:23;;;;;;;6.18;2.70;;;19.80;45.70;;;;;;5012791;28;20103;-74